Terminal Aerodrome Forecast
Issued by NWS Portland, ME

Home | Current Version | Previous Version | Text Only | Print | Product List | Glossary On
Versions: 1 2 3 4 5 6 7 8 9 10 11 12 13 14 15 16 17 18
000
FTUS41 KGYX 292321
TAFCON
TAF
KCON 292321Z 3000/3024 16005KT P6SM BKN250
     FM300300 15004KT 6SM HZ BKN250
     FM301100 19007KT P6SM SCT250
     FM301500 20010G20KT P6SM SCT050=

USA.gov is the U.S. government's official web portal to all federal, state and local government web resources and services.